createdAt,value
2023-04-26T00:01:53.303Z,4.34
2023-04-26T00:04:20.288Z,4.37
2023-04-26T00:06:49.339Z,4.37
2023-04-26T00:09:16.079Z,4.39
2023-04-26T00:11:42.758Z,4.45
2023-04-26T00:14:09.539Z,4.47
2023-04-26T00:16:36.401Z,4.48
2023-04-26T00:19:04.270Z,4.59
2023-04-26T00:21:31.982Z,4.65
2023-04-26T00:23:58.857Z,4.61
2023-04-26T00:26:25.508Z,4.72
2023-04-26T00:28:52.368Z,4.76
2023-04-26T00:31:19.616Z,4.80
2023-04-26T00:33:46.340Z,4.80
2023-04-26T00:36:13.376Z,4.73
2023-04-26T00:38:40.066Z,4.63
2023-04-26T00:41:07.019Z,4.67
2023-04-26T00:43:33.717Z,4.59
2023-04-26T00:46:00.396Z,4.61
2023-04-26T00:48:27.714Z,4.56
2023-04-26T00:50:54.643Z,4.58
2023-04-26T00:53:22.197Z,4.51
2023-04-26T00:55:51.521Z,4.52
2023-04-26T00:58:20.910Z,4.39
2023-04-26T01:00:47.962Z,4.34
2023-04-26T01:03:15.075Z,4.32
2023-04-26T01:05:41.944Z,4.29
2023-04-26T01:08:09.135Z,4.19
2023-04-26T01:10:36.183Z,4.21
2023-04-26T01:13:03.668Z,4.16
2023-04-26T01:15:30.912Z,4.12
2023-04-26T01:17:57.895Z,4.04
2023-04-26T01:20:26.193Z,3.84
2023-04-26T01:22:52.820Z,3.76
2023-04-26T01:25:20.320Z,3.94
2023-04-26T01:27:47.031Z,3.86
2023-04-26T01:30:13.928Z,3.96
2023-04-26T01:32:40.618Z,3.81
2023-04-26T01:35:07.572Z,3.88
2023-04-26T01:37:34.215Z,3.79
2023-04-26T01:40:00.957Z,3.76
2023-04-26T01:42:27.705Z,3.81
2023-04-26T01:44:54.260Z,3.83
2023-04-26T01:47:21.464Z,3.91
2023-04-26T01:49:48.330Z,3.92
2023-04-26T01:52:14.875Z,3.98
2023-04-26T01:54:41.485Z,3.92
2023-04-26T01:57:08.087Z,3.96
2023-04-26T01:59:34.715Z,4.10
2023-04-26T02:02:01.590Z,3.84
2023-04-26T02:04:28.556Z,4.15
2023-04-26T02:06:55.412Z,4.24
2023-04-26T02:09:22.007Z,4.12
2023-04-26T02:11:49.006Z,4.29
2023-04-26T02:14:15.811Z,4.27
2023-04-26T02:16:42.462Z,4.17
2023-04-26T02:19:11.087Z,4.31
2023-04-26T02:21:51.981Z,4.21
2023-04-26T02:24:18.929Z,4.19
2023-04-26T02:26:45.688Z,4.14
2023-04-26T02:29:12.622Z,4.07
2023-04-26T02:31:39.363Z,4.08
2023-04-26T02:34:06.402Z,3.58
2023-04-26T02:36:33.192Z,3.92
2023-04-26T02:39:00.712Z,3.90
2023-04-26T02:41:27.495Z,3.95
2023-04-26T02:43:54.134Z,3.87
2023-04-26T02:46:21.166Z,3.93
2023-04-26T02:48:47.842Z,3.77
2023-04-26T02:51:14.597Z,3.88
2023-04-26T02:53:41.331Z,3.93
2023-04-26T02:56:07.935Z,3.62
2023-04-26T02:58:35.020Z,3.87
2023-04-26T03:01:01.988Z,3.77
2023-04-26T03:03:29.005Z,3.71
2023-04-26T03:05:55.842Z,3.57
2023-04-26T03:08:22.793Z,3.73
2023-04-26T03:10:49.373Z,3.70
2023-04-26T03:13:16.049Z,3.63
2023-04-26T03:15:47.209Z,3.68
2023-04-26T03:18:13.839Z,3.62
2023-04-26T03:20:41.091Z,3.56
2023-04-26T03:23:08.070Z,3.60
2023-04-26T03:25:34.686Z,3.33
2023-04-26T03:28:01.352Z,3.29
2023-04-26T03:30:28.152Z,3.76
2023-04-26T03:32:55.843Z,3.79
2023-04-26T03:35:22.571Z,3.84
2023-04-26T03:37:50.745Z,3.42
2023-04-26T03:40:18.357Z,3.77
2023-04-26T03:42:45.032Z,3.36
2023-04-26T03:45:11.748Z,3.96
2023-04-26T03:47:38.426Z,3.96
2023-04-26T03:50:06.382Z,3.90
2023-04-26T03:52:32.974Z,4.01
2023-04-26T03:54:59.601Z,4.09
2023-04-26T03:57:26.344Z,4.12
2023-04-26T03:59:53.115Z,4.05
2023-04-26T04:02:19.982Z,3.93
2023-04-26T04:04:47.042Z,4.22
2023-04-26T04:07:13.764Z,3.96
2023-04-26T04:09:40.373Z,4.18
2023-04-26T04:12:08.328Z,4.01
2023-04-26T04:14:35.120Z,4.10
2023-04-26T04:17:01.786Z,4.06
2023-04-26T04:19:28.415Z,4.18
2023-04-26T04:21:55.186Z,4.09
2023-04-26T04:24:21.819Z,4.13
2023-04-26T04:26:48.371Z,4.09
2023-04-26T04:29:15.933Z,4.02
2023-04-26T04:31:42.668Z,4.20
2023-04-26T04:34:10.004Z,4.20
2023-04-26T04:36:38.777Z,4.26
2023-04-26T04:39:09.729Z,4.36
2023-04-26T04:41:36.950Z,4.22
2023-04-26T04:44:04.656Z,4.13
2023-04-26T04:46:31.337Z,4.09
2023-04-26T04:48:57.917Z,4.25
2023-04-26T04:51:24.795Z,4.32
2023-04-26T04:53:51.697Z,4.60
2023-04-26T04:56:19.557Z,4.53
2023-04-26T04:58:46.405Z,4.28
2023-04-26T05:01:12.941Z,4.77
2023-04-26T05:03:39.738Z,4.91
2023-04-26T05:06:06.787Z,4.98
2023-04-26T05:08:34.470Z,5.03
2023-04-26T05:11:01.151Z,5.04
2023-04-26T05:13:27.849Z,5.15
2023-04-26T05:15:54.597Z,5.32
2023-04-26T05:18:21.180Z,5.30
2023-04-26T05:20:47.886Z,5.34
2023-04-26T05:23:14.463Z,5.32
2023-04-26T05:25:41.102Z,5.44
2023-04-26T05:28:12.581Z,5.47
2023-04-26T05:30:39.409Z,5.67
2023-04-26T05:33:06.228Z,6.17
2023-04-26T05:35:33.404Z,7.12
2023-04-26T05:37:59.956Z,7.72
2023-04-26T05:40:26.783Z,9.03
2023-04-26T05:42:53.739Z,9.90
2023-04-26T05:45:20.406Z,10.62
2023-04-26T05:47:49.572Z,11.42
2023-04-26T05:50:16.360Z,12.40
2023-04-26T05:52:42.988Z,13.39
2023-04-26T05:55:10.247Z,14.14
2023-04-26T05:57:37.162Z,14.70
2023-04-26T06:00:05.642Z,15.20
2023-04-26T06:02:32.451Z,15.70
2023-04-26T06:04:59.392Z,16.01
2023-04-26T06:07:26.313Z,15.56
2023-04-26T06:09:52.888Z,14.79
2023-04-26T06:12:19.650Z,13.89
2023-04-26T06:14:46.220Z,13.06
2023-04-26T06:17:12.964Z,12.41
2023-04-26T06:19:39.829Z,11.86
2023-04-26T06:22:06.484Z,11.26
2023-04-26T06:24:33.123Z,10.90
2023-04-26T06:26:59.733Z,10.55
2023-04-26T06:29:26.404Z,10.28
2023-04-26T06:31:53.221Z,10.07
2023-04-26T06:34:20.056Z,9.87
2023-04-26T06:36:47.333Z,9.62
2023-04-26T06:39:13.940Z,9.46
2023-04-26T06:41:40.759Z,9.21
2023-04-26T06:44:07.378Z,9.26
2023-04-26T06:46:34.018Z,9.30
2023-04-26T06:49:01.735Z,9.37
2023-04-26T06:51:29.723Z,9.36
2023-04-26T06:53:59.050Z,9.42
2023-04-26T06:56:25.968Z,9.66
2023-04-26T06:59:18.560Z,11.08
2023-04-26T07:01:45.472Z,12.46
2023-04-26T07:04:12.541Z,13.56
2023-04-26T07:06:39.588Z,14.81
2023-04-26T07:09:06.919Z,15.43
2023-04-26T07:11:33.606Z,15.73
2023-04-26T07:14:00.187Z,16.08
2023-04-26T07:16:27.440Z,16.23
2023-04-26T07:18:58.061Z,16.37
2023-04-26T07:21:27.832Z,16.34
2023-04-26T07:23:58.184Z,16.09
2023-04-26T07:26:26.703Z,15.78
2023-04-26T07:28:53.955Z,15.66
2023-04-26T07:31:20.870Z,15.92
2023-04-26T07:33:47.644Z,16.46
2023-04-26T07:36:14.683Z,17.31
2023-04-26T07:38:41.841Z,17.93
2023-04-26T07:41:08.488Z,18.08
2023-04-26T07:43:35.119Z,18.34
2023-04-26T07:46:02.386Z,18.38
2023-04-26T07:48:29.362Z,18.28
2023-04-26T07:50:56.445Z,18.27
2023-04-26T07:53:23.530Z,18.10
2023-04-26T07:55:51.717Z,17.66
2023-04-26T07:58:19.548Z,17.90
2023-04-26T08:00:46.255Z,17.56
2023-04-26T08:03:16.634Z,17.15
2023-04-26T08:05:43.694Z,17.10
2023-04-26T08:08:11.002Z,16.69
2023-04-26T08:10:41.486Z,16.69
2023-04-26T08:13:08.144Z,16.58
2023-04-26T08:15:34.975Z,16.31
2023-04-26T08:18:01.940Z,15.96
2023-04-26T08:20:29.236Z,15.79
2023-04-26T08:22:59.723Z,15.44
2023-04-26T08:25:26.597Z,14.78
2023-04-26T08:27:53.371Z,14.65
2023-04-26T08:30:20.344Z,14.20
2023-04-26T08:32:47.375Z,14.04
2023-04-26T08:35:14.156Z,13.75
2023-04-26T08:37:40.947Z,13.39
2023-04-26T08:40:10.204Z,13.17
2023-04-26T08:42:42.491Z,12.98
2023-04-26T08:45:11.600Z,12.72
2023-04-26T08:47:51.673Z,12.52
2023-04-26T08:50:22.683Z,12.19
2023-04-26T08:52:51.983Z,12.08
2023-04-26T08:55:22.549Z,12.00
2023-04-26T08:57:50.725Z,12.08
2023-04-26T09:00:18.826Z,12.00
2023-04-26T09:02:53.566Z,11.78
2023-04-26T09:05:24.647Z,11.66
2023-04-26T09:07:56.597Z,11.46
2023-04-26T09:10:23.463Z,11.42
2023-04-26T09:12:54.027Z,11.06
2023-04-26T09:15:22.917Z,10.82
2023-04-26T09:17:51.842Z,10.48
2023-04-26T09:20:19.035Z,10.24
2023-04-26T09:22:46.685Z,9.87
2023-04-26T09:25:15.907Z,9.85
2023-04-26T09:27:44.020Z,9.79
2023-04-26T09:30:18.551Z,9.71
2023-04-26T09:32:52.802Z,9.84
2023-04-26T09:35:24.752Z,9.60
2023-04-26T09:38:05.601Z,9.87
2023-04-26T09:40:41.092Z,9.66
2023-04-26T09:43:21.122Z,9.71
2023-04-26T09:45:53.054Z,9.89
2023-04-26T09:48:23.590Z,9.99
2023-04-26T09:50:52.890Z,10.00
2023-04-26T09:53:37.295Z,10.11
2023-04-26T09:56:13.548Z,9.96
2023-04-26T09:58:59.047Z,9.91
2023-04-26T10:01:30.439Z,9.88
2023-04-26T10:04:00.923Z,9.91
2023-04-26T10:06:28.476Z,9.96
2023-04-26T10:08:55.906Z,9.69
2023-04-26T10:11:23.350Z,9.93
2023-04-26T10:13:51.493Z,9.80
2023-04-26T10:16:21.000Z,9.81
2023-04-26T10:18:48.137Z,9.86
2023-04-26T10:21:27.263Z,9.94
2023-04-26T10:23:54.725Z,9.97
2023-04-26T10:26:47.175Z,10.36
2023-04-26T10:29:13.878Z,10.55
2023-04-26T10:32:19.926Z,10.78
2023-04-26T10:35:12.381Z,10.94
2023-04-26T10:38:03.883Z,11.08
2023-04-26T10:40:33.928Z,11.13
2023-04-26T10:43:16.401Z,11.09
2023-04-26T10:45:44.909Z,10.72
2023-04-26T10:48:30.199Z,10.99
2023-04-26T10:51:02.794Z,11.17
2023-04-26T10:53:53.784Z,11.01
2023-04-26T10:56:23.832Z,11.28
2023-04-26T10:59:22.569Z,11.20
2023-04-26T11:01:55.213Z,11.19
2023-04-26T11:04:22.427Z,11.03
2023-04-26T11:06:51.026Z,11.17
2023-04-26T11:09:37.193Z,11.20
2023-04-26T11:12:05.399Z,11.21
2023-04-26T11:14:36.096Z,11.07
2023-04-26T11:17:06.922Z,10.90
2023-04-26T11:19:34.005Z,10.96
2023-04-26T11:22:01.705Z,11.38
2023-04-26T11:24:31.115Z,11.25
2023-04-26T11:27:00.626Z,11.01
2023-04-26T11:29:27.217Z,10.63
2023-04-26T11:31:58.806Z,10.62
2023-04-26T11:34:39.316Z,10.48
2023-04-26T11:37:07.416Z,10.20
2023-04-26T11:39:35.057Z,10.36
2023-04-26T11:42:09.369Z,10.39
2023-04-26T11:44:38.603Z,10.47
2023-04-26T11:47:07.329Z,10.57
2023-04-26T11:49:37.099Z,10.69
2023-04-26T11:52:05.224Z,10.70
2023-04-26T11:54:34.596Z,10.61
2023-04-26T11:57:03.130Z,10.88
2023-04-26T11:59:30.931Z,11.10
2023-04-26T12:01:57.828Z,11.09
2023-04-26T12:04:32.098Z,10.53
2023-04-26T12:06:58.922Z,11.07
2023-04-26T12:09:32.086Z,11.07
2023-04-26T12:12:02.916Z,10.96
2023-04-26T12:14:40.529Z,10.97
2023-04-26T12:17:08.090Z,10.99
2023-04-26T12:19:38.959Z,11.01
2023-04-26T12:22:09.139Z,11.11
2023-04-26T12:24:38.712Z,11.09
2023-04-26T12:27:07.050Z,11.25
2023-04-26T12:29:35.087Z,11.23
2023-04-26T12:32:02.612Z,11.43
2023-04-26T12:34:29.686Z,11.45
2023-04-26T12:36:56.594Z,11.38
2023-04-26T12:39:23.220Z,11.51
2023-04-26T12:41:49.854Z,11.44
2023-04-26T12:44:16.746Z,11.19
2023-04-26T12:46:44.011Z,11.22
2023-04-26T12:49:10.785Z,10.94
2023-04-26T12:51:37.737Z,10.99
2023-04-26T12:54:04.504Z,10.81
2023-04-26T12:56:31.198Z,10.55
2023-04-26T12:58:58.183Z,10.52
2023-04-26T13:01:24.979Z,10.54
2023-04-26T13:03:51.790Z,10.29
2023-04-26T13:06:18.747Z,10.03
2023-04-26T13:08:45.451Z,9.81
2023-04-26T13:11:12.119Z,10.30
2023-04-26T13:13:43.841Z,10.12
2023-04-26T13:16:12.537Z,10.28
2023-04-26T13:18:40.350Z,10.26
2023-04-26T13:21:07.715Z,10.39
2023-04-26T13:23:34.419Z,10.20
2023-04-26T13:26:01.277Z,10.28
2023-04-26T13:28:27.989Z,10.47
2023-04-26T13:30:55.915Z,10.41
2023-04-26T13:33:22.901Z,10.58
2023-04-26T13:35:49.727Z,10.83
2023-04-26T13:38:16.975Z,10.45
2023-04-26T13:40:44.239Z,10.92
2023-04-26T13:43:10.912Z,11.01
2023-04-26T13:45:37.518Z,11.08
2023-04-26T13:48:04.512Z,10.82
2023-04-26T13:50:31.323Z,10.78
2023-04-26T13:52:58.056Z,11.18
2023-04-26T13:55:25.806Z,11.17
2023-04-26T13:57:52.594Z,11.08
2023-04-26T14:00:19.688Z,10.88
2023-04-26T14:02:46.592Z,10.88
2023-04-26T14:05:13.432Z,10.72
2023-04-26T14:07:41.601Z,10.80
2023-04-26T14:10:08.975Z,10.67
2023-04-26T14:12:35.769Z,10.55
2023-04-26T14:15:04.381Z,10.62
2023-04-26T14:17:32.621Z,10.57
2023-04-26T14:19:59.339Z,10.51
2023-04-26T14:22:26.806Z,10.58
2023-04-26T14:24:53.518Z,10.57
2023-04-26T14:27:20.370Z,10.53
2023-04-26T14:29:47.079Z,10.20
2023-04-26T14:32:14.062Z,10.25
2023-04-26T14:34:40.766Z,10.23
2023-04-26T14:37:07.711Z,9.99
2023-04-26T14:39:34.941Z,9.90
2023-04-26T14:42:01.771Z,10.13
2023-04-26T14:44:28.799Z,10.08
2023-04-26T14:46:55.851Z,10.17
2023-04-26T14:49:22.616Z,10.11
2023-04-26T14:51:51.196Z,10.16
2023-04-26T14:54:19.578Z,10.05
2023-04-26T14:56:46.398Z,10.22
2023-04-26T14:59:13.221Z,9.82
2023-04-26T15:01:40.269Z,10.17
2023-04-26T15:04:07.155Z,10.28
2023-04-26T15:06:34.344Z,9.92
2023-04-26T15:09:01.613Z,10.48
2023-04-26T15:11:28.280Z,10.56
2023-04-26T15:13:54.854Z,10.44
2023-04-26T15:16:21.940Z,10.62
2023-04-26T15:18:48.665Z,10.76
2023-04-26T15:21:19.715Z,10.64
2023-04-26T15:23:46.762Z,10.73
2023-04-26T15:26:14.331Z,10.82
2023-04-26T15:28:41.206Z,10.53
2023-04-26T15:31:09.603Z,10.94
2023-04-26T15:33:36.712Z,10.81
2023-04-26T15:36:03.811Z,11.03
2023-04-26T15:38:30.862Z,10.27
2023-04-26T15:40:57.542Z,10.94
2023-04-26T15:43:24.169Z,10.91
2023-04-26T15:45:51.584Z,10.90
2023-04-26T15:48:18.301Z,10.79
2023-04-26T15:50:45.246Z,10.63
2023-04-26T15:53:12.252Z,10.44
2023-04-26T15:55:38.875Z,10.44
2023-04-26T15:58:05.486Z,10.40
2023-04-26T16:00:32.466Z,9.96
2023-04-26T16:02:59.262Z,10.08
2023-04-26T16:05:26.446Z,10.27
2023-04-26T16:07:53.208Z,10.18
2023-04-26T16:10:19.917Z,10.27
2023-04-26T16:12:46.786Z,10.19
2023-04-26T16:15:14.501Z,10.18
2023-04-26T16:17:41.199Z,10.30
2023-04-26T16:20:10.246Z,10.37
2023-04-26T16:22:37.271Z,9.99
2023-04-26T16:25:06.788Z,10.55
2023-04-26T16:27:33.652Z,10.31
2023-04-26T16:30:00.343Z,10.47
2023-04-26T16:32:27.286Z,10.02
2023-04-26T16:34:54.024Z,10.21
2023-04-26T16:37:20.914Z,10.22
2023-04-26T16:39:47.663Z,10.18
2023-04-26T16:42:14.331Z,10.17
2023-04-26T16:44:41.396Z,10.01
2023-04-26T16:47:08.001Z,10.03
2023-04-26T16:49:34.676Z,9.99
2023-04-26T16:52:01.919Z,9.88
2023-04-26T16:54:28.561Z,9.91
2023-04-26T16:56:55.227Z,9.74
2023-04-26T16:59:22.708Z,9.87
2023-04-26T17:01:49.496Z,9.82
2023-04-26T17:04:16.303Z,9.70
2023-04-26T17:06:44.943Z,9.63
2023-04-26T17:09:12.969Z,9.56
2023-04-26T17:11:43.564Z,9.62
2023-04-26T17:14:10.760Z,9.70
2023-04-26T17:16:37.722Z,9.78
2023-04-26T17:19:04.366Z,9.75
2023-04-26T17:21:31.905Z,9.04
2023-04-26T17:23:58.598Z,9.57
2023-04-26T17:26:25.315Z,9.44
2023-04-26T17:28:52.904Z,9.31
2023-04-26T17:31:19.574Z,9.32
2023-04-26T17:33:46.230Z,9.14
2023-04-26T17:36:12.909Z,9.13
2023-04-26T17:38:39.682Z,9.08
2023-04-26T17:41:06.355Z,9.04
2023-04-26T17:43:33.038Z,8.96
2023-04-26T17:45:59.651Z,8.85
2023-04-26T17:48:26.441Z,8.86
2023-04-26T17:50:53.579Z,8.89
2023-04-26T17:53:20.513Z,8.89
2023-04-26T17:55:47.350Z,8.83
2023-04-26T17:58:14.165Z,8.74
2023-04-26T18:00:40.848Z,8.28
2023-04-26T18:03:07.972Z,8.70
2023-04-26T18:05:34.814Z,8.52
2023-04-26T18:08:01.781Z,8.65
2023-04-26T18:10:28.515Z,8.45
2023-04-26T18:12:55.471Z,8.64
2023-04-26T18:15:22.370Z,8.45
2023-04-26T18:17:49.005Z,8.49
2023-04-26T18:20:16.567Z,8.40
2023-04-26T18:22:43.254Z,8.31
2023-04-26T18:25:10.004Z,8.34
2023-04-26T18:27:36.749Z,8.21
2023-04-26T18:30:04.830Z,8.21
2023-04-26T18:32:31.477Z,8.19
2023-04-26T18:34:58.536Z,7.99
2023-04-26T18:37:25.751Z,8.16
2023-04-26T18:39:52.383Z,7.46
2023-04-26T18:42:19.048Z,7.99
2023-04-26T18:44:45.649Z,7.97
2023-04-26T18:47:12.274Z,7.84
2023-04-26T18:49:39.098Z,7.93
2023-04-26T18:52:08.718Z,7.81
2023-04-26T18:54:38.395Z,7.70
2023-04-26T18:57:05.136Z,7.69
2023-04-26T18:59:31.962Z,7.70
2023-04-26T19:01:59.054Z,7.67
2023-04-26T19:04:26.550Z,7.66
2023-04-26T19:06:53.296Z,7.41
2023-04-26T19:09:20.030Z,7.55
2023-04-26T19:11:47.202Z,7.36
2023-04-26T19:14:13.841Z,7.42
2023-04-26T19:16:40.506Z,7.30
2023-04-26T19:19:07.237Z,7.22
2023-04-26T19:21:35.178Z,7.32
2023-04-26T19:24:01.851Z,7.13
2023-04-26T19:26:28.699Z,7.14
2023-04-26T19:28:55.855Z,7.14
2023-04-26T19:31:22.867Z,6.98
2023-04-26T19:33:49.588Z,6.89
2023-04-26T19:36:16.282Z,6.97
2023-04-26T20:11:53.700Z,6.41
2023-04-26T20:14:20.345Z,6.50
2023-04-26T20:16:47.383Z,6.48
2023-04-26T20:19:14.731Z,6.42
2023-04-26T20:21:41.372Z,6.49
2023-04-26T20:24:08.234Z,6.25
2023-04-26T20:26:34.997Z,6.39
2023-04-26T20:29:02.030Z,6.27
2023-04-26T20:31:28.793Z,6.24
2023-04-26T20:33:55.711Z,5.90
2023-04-26T20:36:22.667Z,6.20
2023-04-26T20:38:49.275Z,5.84
2023-04-26T20:41:16.508Z,6.01
2023-04-26T20:43:43.173Z,6.06
2023-04-26T20:46:09.897Z,5.98
2023-04-26T20:48:36.913Z,5.84
2023-04-26T20:51:03.722Z,5.81
2023-04-26T20:53:31.040Z,5.79
2023-04-26T20:55:58.184Z,5.79
2023-04-26T20:58:24.859Z,5.72
2023-04-26T21:00:52.266Z,5.69
2023-04-26T21:03:19.722Z,5.68
2023-04-26T21:05:46.578Z,5.40
2023-04-26T21:08:13.260Z,5.55
2023-04-26T21:10:41.070Z,5.39
2023-04-26T21:13:07.862Z,5.44
2023-04-26T21:15:34.698Z,5.44
2023-04-26T21:18:01.985Z,5.06
2023-04-26T21:20:28.757Z,5.32
2023-04-26T21:22:55.418Z,5.22
2023-04-26T21:25:22.866Z,5.16
2023-04-26T21:27:51.314Z,5.17
2023-04-26T21:30:18.172Z,4.99
2023-04-26T21:32:45.167Z,5.05
2023-04-26T21:35:11.956Z,5.07
2023-04-26T21:37:38.632Z,5.00
2023-04-26T21:40:08.130Z,4.93
2023-04-26T21:42:34.766Z,5.00
2023-04-26T21:45:01.534Z,4.72
2023-04-26T21:47:28.396Z,4.88
2023-04-26T21:49:55.166Z,4.93
2023-04-26T21:52:21.808Z,4.78
2023-04-26T21:54:49.425Z,4.76
2023-04-26T21:57:16.870Z,4.78
2023-04-26T21:59:43.940Z,4.57
2023-04-26T22:02:10.844Z,4.76
2023-04-26T22:04:37.521Z,4.64
2023-04-26T22:07:04.136Z,4.68
2023-04-26T22:09:31.397Z,4.55
2023-04-26T22:11:58.024Z,4.40
2023-04-26T22:14:24.711Z,4.58
2023-04-26T22:16:51.503Z,4.56
2023-04-26T22:19:18.201Z,4.53
2023-04-26T22:21:44.824Z,4.37
2023-04-26T22:24:11.465Z,4.42
2023-04-26T22:26:39.376Z,4.34
2023-04-26T22:29:07.148Z,4.20
2023-04-26T22:31:34.038Z,4.29
2023-04-26T22:34:00.612Z,4.19
2023-04-26T22:36:27.191Z,3.99
2023-04-26T22:38:54.767Z,4.04
2023-04-26T22:41:21.656Z,4.21
2023-04-26T22:43:48.239Z,4.17
2023-04-26T22:46:14.893Z,4.15
2023-04-26T22:48:41.734Z,4.04
2023-04-26T22:51:08.304Z,4.02
2023-04-26T22:53:35.019Z,4.08
2023-04-26T22:56:01.752Z,4.15
2023-04-26T22:58:28.450Z,4.12
2023-04-26T23:00:55.090Z,4.06
2023-04-26T23:03:21.868Z,3.85
2023-04-26T23:05:48.775Z,4.06
2023-04-26T23:08:15.786Z,4.06
2023-04-26T23:10:42.432Z,3.98
2023-04-26T23:13:09.093Z,3.87
2023-04-26T23:15:35.826Z,3.81
2023-04-26T23:18:03.080Z,3.95
2023-04-26T23:20:30.020Z,3.89
2023-04-26T23:22:56.646Z,3.68
2023-04-26T23:25:23.291Z,3.87
2023-04-26T23:27:49.874Z,3.86
2023-04-26T23:30:17.142Z,3.66
2023-04-26T23:32:43.767Z,3.79
2023-04-26T23:35:10.603Z,3.32
2023-04-26T23:37:37.550Z,3.65
2023-04-26T23:40:06.517Z,3.52
2023-04-26T23:42:33.078Z,3.23
2023-04-26T23:44:59.778Z,3.62
2023-04-26T23:47:26.879Z,3.65
2023-04-26T23:49:53.572Z,3.54
2023-04-26T23:52:20.628Z,3.46
2023-04-26T23:54:47.269Z,3.38
2023-04-26T23:57:13.850Z,3.50
2023-04-26T23:59:40.898Z,3.49
